Terminal Aerodrome Forecast
Issued by NWS Charleston, WV

Current Version | Previous Version | Graphics & Text | Print | Product List | Glossary On
Versions: 1 2 3 4 5 6 7 8 9 10 11 12 13 14 15 16 17 18 19 20 21 22 23 24 25 26 27
322
FTUS41 KRLX 131752
TAFEKN
TAF
KEKN 131752Z 1318/1418 31014G23KT P6SM -SHSN BKN035
     FM140000 30009G16KT P6SM BKN040
     FM140600 31005KT P6SM SCT040
     FM140900 VRB03KT 6SM FU SKC
     FM141600 VRB03KT P6SM BKN250=

USA.gov is the U.S. government's official web portal to all federal, state and local government web resources and services.